sensor_id;sensor_type;location;lat;lon;timestamp;temperature;humidity
30206;DHT22;17010;51.306;3.150;2023-01-15T00:03:43;7.90;99.90
30206;DHT22;17010;51.306;3.150;2023-01-15T00:06:09;7.90;99.90
30206;DHT22;17010;51.306;3.150;2023-01-15T00:08:36;7.90;99.90
30206;DHT22;17010;51.306;3.150;2023-01-15T00:11:03;7.90;99.90
30206;DHT22;17010;51.306;3.150;2023-01-15T00:13:29;7.80;99.90
30206;DHT22;17010;51.306;3.150;2023-01-15T00:16:09;7.80;99.90
30206;DHT22;17010;51.306;3.150;2023-01-15T00:18:36;7.80;99.90
30206;DHT22;17010;51.306;3.150;2023-01-15T00:21:04;7.90;99.90
30206;DHT22;17010;51.306;3.150;2023-01-15T00:23:31;7.80;99.90
30206;DHT22;17010;51.306;3.150;2023-01-15T00:26:18;7.80;99.90
30206;DHT22;17010;51.306;3.150;2023-01-15T00:29:03;7.80;99.90
30206;DHT22;17010;51.306;3.150;2023-01-15T00:31:31;7.70;99.90
30206;DHT22;17010;51.306;3.150;2023-01-15T00:33:57;7.70;99.90
30206;DHT22;17010;51.306;3.150;2023-01-15T00:36:23;7.70;99.90
30206;DHT22;17010;51.306;3.150;2023-01-15T00:38:51;7.70;99.90
30206;DHT22;17010;51.306;3.150;2023-01-15T00:41:17;7.60;99.90
30206;DHT22;17010;51.306;3.150;2023-01-15T00:43:43;7.60;99.90
30206;DHT22;17010;51.306;3.150;2023-01-15T00:46:10;7.70;99.90
30206;DHT22;17010;51.306;3.150;2023-01-15T00:48:36;7.70;99.90
30206;DHT22;17010;51.306;3.150;2023-01-15T00:51:03;7.70;99.90
30206;DHT22;17010;51.306;3.150;2023-01-15T00:53:29;7.70;99.90
30206;DHT22;17010;51.306;3.150;2023-01-15T00:55:56;7.70;99.90
30206;DHT22;17010;51.306;3.150;2023-01-15T00:58:22;7.70;99.90
30206;DHT22;17010;51.306;3.150;2023-01-15T01:00:55;7.70;99.90
30206;DHT22;17010;51.306;3.150;2023-01-15T01:03:22;7.80;99.90
30206;DHT22;17010;51.306;3.150;2023-01-15T01:05:49;7.80;99.90
30206;DHT22;17010;51.306;3.150;2023-01-15T01:08:16;7.90;99.90
30206;DHT22;17010;51.306;3.150;2023-01-15T01:10:42;7.80;99.90
30206;DHT22;17010;51.306;3.150;2023-01-15T01:13:09;7.80;99.90
30206;DHT22;17010;51.306;3.150;2023-01-15T01:15:36;7.80;99.90
30206;DHT22;17010;51.306;3.150;2023-01-15T01:18:03;7.90;99.90
30206;DHT22;17010;51.306;3.150;2023-01-15T01:20:30;7.90;99.90
30206;DHT22;17010;51.306;3.150;2023-01-15T01:22:57;7.90;99.90
30206;DHT22;17010;51.306;3.150;2023-01-15T01:25:23;7.80;99.90
30206;DHT22;17010;51.306;3.150;2023-01-15T01:27:50;7.70;99.90
30206;DHT22;17010;51.306;3.150;2023-01-15T01:30:16;7.70;99.90
30206;DHT22;17010;51.306;3.150;2023-01-15T01:32:43;7.70;99.90
30206;DHT22;17010;51.306;3.150;2023-01-15T01:35:10;7.70;99.90
30206;DHT22;17010;51.306;3.150;2023-01-15T01:37:36;7.70;99.90
30206;DHT22;17010;51.306;3.150;2023-01-15T01:40:03;7.70;99.90
30206;DHT22;17010;51.306;3.150;2023-01-15T01:42:29;7.70;99.90
30206;DHT22;17010;51.306;3.150;2023-01-15T01:45:01;7.70;99.90
30206;DHT22;17010;51.306;3.150;2023-01-15T01:47:28;7.70;99.90
30206;DHT22;17010;51.306;3.150;2023-01-15T01:49:58;7.70;99.90
30206;DHT22;17010;51.306;3.150;2023-01-15T01:52:32;7.70;99.90
30206;DHT22;17010;51.306;3.150;2023-01-15T01:55:00;7.70;99.90
30206;DHT22;17010;51.306;3.150;2023-01-15T01:57:27;7.70;99.90
30206;DHT22;17010;51.306;3.150;2023-01-15T01:59:53;7.70;99.90
30206;DHT22;17010;51.306;3.150;2023-01-15T02:02:20;7.70;99.90
30206;DHT22;17010;51.306;3.150;2023-01-15T02:04:47;7.70;99.90
30206;DHT22;17010;51.306;3.150;2023-01-15T02:07:14;7.60;99.90
30206;DHT22;17010;51.306;3.150;2023-01-15T02:09:41;7.60;99.90
30206;DHT22;17010;51.306;3.150;2023-01-15T02:12:27;7.60;99.90
30206;DHT22;17010;51.306;3.150;2023-01-15T02:15:08;7.60;99.90
30206;DHT22;17010;51.306;3.150;2023-01-15T02:17:44;7.50;99.90
30206;DHT22;17010;51.306;3.150;2023-01-15T02:20:31;7.40;99.90
30206;DHT22;17010;51.306;3.150;2023-01-15T02:23:01;7.40;99.90
30206;DHT22;17010;51.306;3.150;2023-01-15T02:28:13;7.50;99.90
30206;DHT22;17010;51.306;3.150;2023-01-15T02:30:46;7.60;99.90
30206;DHT22;17010;51.306;3.150;2023-01-15T02:33:20;7.50;99.90
30206;DHT22;17010;51.306;3.150;2023-01-15T02:35:51;7.50;99.90
30206;DHT22;17010;51.306;3.150;2023-01-15T02:38:23;7.50;99.90
30206;DHT22;17010;51.306;3.150;2023-01-15T02:40:51;7.50;99.90
30206;DHT22;17010;51.306;3.150;2023-01-15T02:43:19;7.60;99.90
30206;DHT22;17010;51.306;3.150;2023-01-15T02:45:49;7.60;99.90
30206;DHT22;17010;51.306;3.150;2023-01-15T02:48:24;7.50;99.90
30206;DHT22;17010;51.306;3.150;2023-01-15T02:50:57;7.50;99.90
30206;DHT22;17010;51.306;3.150;2023-01-15T02:53:26;7.40;99.90
30206;DHT22;17010;51.306;3.150;2023-01-15T02:55:55;7.40;99.90
30206;DHT22;17010;51.306;3.150;2023-01-15T02:58:26;7.40;99.90
30206;DHT22;17010;51.306;3.150;2023-01-15T03:00:53;7.30;99.90
30206;DHT22;17010;51.306;3.150;2023-01-15T03:03:35;7.30;99.90
30206;DHT22;17010;51.306;3.150;2023-01-15T03:06:04;7.40;99.90
30206;DHT22;17010;51.306;3.150;2023-01-15T03:08:33;7.40;99.90
30206;DHT22;17010;51.306;3.150;2023-01-15T03:11:08;7.40;99.90
30206;DHT22;17010;51.306;3.150;2023-01-15T03:24:46;7.40;99.90
30206;DHT22;17010;51.306;3.150;2023-01-15T03:27:14;7.40;99.90
30206;DHT22;17010;51.306;3.150;2023-01-15T03:29:52;7.40;99.90
30206;DHT22;17010;51.306;3.150;2023-01-15T03:32:19;7.40;99.90
30206;DHT22;17010;51.306;3.150;2023-01-15T03:34:51;7.50;99.90
30206;DHT22;17010;51.306;3.150;2023-01-15T03:37:23;7.40;99.90
30206;DHT22;17010;51.306;3.150;2023-01-15T03:39:49;7.40;99.90
30206;DHT22;17010;51.306;3.150;2023-01-15T03:50:35;7.40;99.90
30206;DHT22;17010;51.306;3.150;2023-01-15T03:53:19;7.50;99.90
30206;DHT22;17010;51.306;3.150;2023-01-15T03:56:07;7.50;99.90
30206;DHT22;17010;51.306;3.150;2023-01-15T03:58:38;7.50;99.90
30206;DHT22;17010;51.306;3.150;2023-01-15T04:01:08;7.50;99.90
30206;DHT22;17010;51.306;3.150;2023-01-15T04:03:35;7.50;99.90
30206;DHT22;17010;51.306;3.150;2023-01-15T04:06:02;7.40;99.90
30206;DHT22;17010;51.306;3.150;2023-01-15T04:08:35;7.50;99.90
30206;DHT22;17010;51.306;3.150;2023-01-15T04:11:03;7.50;99.90
30206;DHT22;17010;51.306;3.150;2023-01-15T04:13:29;7.50;99.90
30206;DHT22;17010;51.306;3.150;2023-01-15T04:15:55;7.40;99.90
30206;DHT22;17010;51.306;3.150;2023-01-15T04:18:22;7.40;99.90
30206;DHT22;17010;51.306;3.150;2023-01-15T04:20:48;7.40;99.90
30206;DHT22;17010;51.306;3.150;2023-01-15T04:23:15;7.40;99.90
30206;DHT22;17010;51.306;3.150;2023-01-15T04:25:41;7.40;99.90
30206;DHT22;17010;51.306;3.150;2023-01-15T04:28:08;7.30;99.90
30206;DHT22;17010;51.306;3.150;2023-01-15T04:30:35;7.30;99.90
30206;DHT22;17010;51.306;3.150;2023-01-15T04:33:02;7.20;99.90
30206;DHT22;17010;51.306;3.150;2023-01-15T04:35:28;7.30;99.90
30206;DHT22;17010;51.306;3.150;2023-01-15T04:37:55;7.20;99.90
30206;DHT22;17010;51.306;3.150;2023-01-15T04:40:21;7.20;99.90
30206;DHT22;17010;51.306;3.150;2023-01-15T04:43:10;7.20;99.90
30206;DHT22;17010;51.306;3.150;2023-01-15T04:45:55;7.10;99.90
30206;DHT22;17010;51.306;3.150;2023-01-15T04:48:22;7.20;99.90
30206;DHT22;17010;51.306;3.150;2023-01-15T04:50:48;7.20;99.90
30206;DHT22;17010;51.306;3.150;2023-01-15T04:53:15;7.10;99.90
30206;DHT22;17010;51.306;3.150;2023-01-15T04:55:41;7.10;99.90
30206;DHT22;17010;51.306;3.150;2023-01-15T04:58:07;7.10;99.90
30206;DHT22;17010;51.306;3.150;2023-01-15T05:00:33;7.10;99.90
30206;DHT22;17010;51.306;3.150;2023-01-15T05:03:00;7.10;99.90
30206;DHT22;17010;51.306;3.150;2023-01-15T05:05:26;7.10;99.90
30206;DHT22;17010;51.306;3.150;2023-01-15T05:07:52;7.20;99.90
30206;DHT22;17010;51.306;3.150;2023-01-15T05:10:18;7.10;99.90
30206;DHT22;17010;51.306;3.150;2023-01-15T05:12:44;7.10;99.90
30206;DHT22;17010;51.306;3.150;2023-01-15T05:15:10;7.10;99.90
30206;DHT22;17010;51.306;3.150;2023-01-15T05:17:37;7.10;99.90
30206;DHT22;17010;51.306;3.150;2023-01-15T05:20:03;7.10;99.90
30206;DHT22;17010;51.306;3.150;2023-01-15T05:22:29;7.10;99.90
30206;DHT22;17010;51.306;3.150;2023-01-15T05:24:55;7.10;99.90
30206;DHT22;17010;51.306;3.150;2023-01-15T05:27:22;7.10;99.90
30206;DHT22;17010;51.306;3.150;2023-01-15T05:29:48;7.10;99.90
30206;DHT22;17010;51.306;3.150;2023-01-15T05:32:14;7.00;99.90
30206;DHT22;17010;51.306;3.150;2023-01-15T05:34:40;7.00;99.90
30206;DHT22;17010;51.306;3.150;2023-01-15T05:37:07;6.90;99.90
30206;DHT22;17010;51.306;3.150;2023-01-15T05:39:33;6.90;99.90
30206;DHT22;17010;51.306;3.150;2023-01-15T05:41:59;6.90;99.90
30206;DHT22;17010;51.306;3.150;2023-01-15T05:44:26;6.90;99.90
30206;DHT22;17010;51.306;3.150;2023-01-15T05:47:02;7.00;99.90
30206;DHT22;17010;51.306;3.150;2023-01-15T05:49:30;6.90;99.90
30206;DHT22;17010;51.306;3.150;2023-01-15T05:51:58;6.90;99.90
30206;DHT22;17010;51.306;3.150;2023-01-15T05:54:28;6.90;99.90
30206;DHT22;17010;51.306;3.150;2023-01-15T05:56:54;6.90;99.90
30206;DHT22;17010;51.306;3.150;2023-01-15T05:59:25;6.80;99.90
30206;DHT22;17010;51.306;3.150;2023-01-15T06:01:51;6.80;99.90
30206;DHT22;17010;51.306;3.150;2023-01-15T06:04:18;6.80;99.90
30206;DHT22;17010;51.306;3.150;2023-01-15T06:06:47;6.80;99.90
30206;DHT22;17010;51.306;3.150;2023-01-15T06:09:13;6.80;99.90
30206;DHT22;17010;51.306;3.150;2023-01-15T06:11:41;6.70;99.90
30206;DHT22;17010;51.306;3.150;2023-01-15T06:14:08;6.80;99.90
30206;DHT22;17010;51.306;3.150;2023-01-15T06:16:35;6.80;99.90
30206;DHT22;17010;51.306;3.150;2023-01-15T06:19:03;6.70;99.90
30206;DHT22;17010;51.306;3.150;2023-01-15T06:21:30;6.70;99.90
30206;DHT22;17010;51.306;3.150;2023-01-15T06:23:56;6.70;99.90
30206;DHT22;17010;51.306;3.150;2023-01-15T06:26:23;6.80;99.90
30206;DHT22;17010;51.306;3.150;2023-01-15T06:28:50;6.90;99.90
30206;DHT22;17010;51.306;3.150;2023-01-15T06:31:19;6.90;99.90
30206;DHT22;17010;51.306;3.150;2023-01-15T06:33:46;6.90;99.90
30206;DHT22;17010;51.306;3.150;2023-01-15T06:36:14;6.90;99.90
30206;DHT22;17010;51.306;3.150;2023-01-15T06:38:41;6.90;99.90
30206;DHT22;17010;51.306;3.150;2023-01-15T06:41:11;6.90;99.90
30206;DHT22;17010;51.306;3.150;2023-01-15T06:43:56;6.80;99.90
30206;DHT22;17010;51.306;3.150;2023-01-15T06:46:46;6.80;99.90
30206;DHT22;17010;51.306;3.150;2023-01-15T06:49:32;6.80;99.90
30206;DHT22;17010;51.306;3.150;2023-01-15T06:51:59;6.90;99.90
30206;DHT22;17010;51.306;3.150;2023-01-15T06:54:25;6.90;99.90
30206;DHT22;17010;51.306;3.150;2023-01-15T06:56:52;6.80;99.90
30206;DHT22;17010;51.306;3.150;2023-01-15T06:59:19;6.90;99.90
30206;DHT22;17010;51.306;3.150;2023-01-15T07:01:45;6.90;99.90
30206;DHT22;17010;51.306;3.150;2023-01-15T07:04:12;6.90;99.90
30206;DHT22;17010;51.306;3.150;2023-01-15T07:06:38;6.90;99.90
30206;DHT22;17010;51.306;3.150;2023-01-15T07:09:04;7.00;99.90
30206;DHT22;17010;51.306;3.150;2023-01-15T07:11:31;7.00;99.90
30206;DHT22;17010;51.306;3.150;2023-01-15T07:13:58;7.00;99.90
30206;DHT22;17010;51.306;3.150;2023-01-15T07:16:34;7.00;99.90
30206;DHT22;17010;51.306;3.150;2023-01-15T07:19:00;7.00;99.90
30206;DHT22;17010;51.306;3.150;2023-01-15T07:21:27;7.00;99.90
30206;DHT22;17010;51.306;3.150;2023-01-15T07:23:54;7.00;99.90
30206;DHT22;17010;51.306;3.150;2023-01-15T07:26:23;7.00;99.90
30206;DHT22;17010;51.306;3.150;2023-01-15T07:28:49;7.00;99.90
30206;DHT22;17010;51.306;3.150;2023-01-15T07:31:16;7.10;99.90
30206;DHT22;17010;51.306;3.150;2023-01-15T07:33:42;7.10;99.90
30206;DHT22;17010;51.306;3.150;2023-01-15T07:36:08;7.10;99.90
30206;DHT22;17010;51.306;3.150;2023-01-15T07:38:34;7.10;99.90
30206;DHT22;17010;51.306;3.150;2023-01-15T07:41:01;7.00;99.90
30206;DHT22;17010;51.306;3.150;2023-01-15T07:43:45;7.00;99.90
30206;DHT22;17010;51.306;3.150;2023-01-15T07:46:31;7.00;99.90
30206;DHT22;17010;51.306;3.150;2023-01-15T07:49:29;7.00;99.90
30206;DHT22;17010;51.306;3.150;2023-01-15T07:52:13;7.00;99.90
30206;DHT22;17010;51.306;3.150;2023-01-15T07:54:40;7.00;99.90
30206;DHT22;17010;51.306;3.150;2023-01-15T07:57:07;7.00;99.90
30206;DHT22;17010;51.306;3.150;2023-01-15T07:59:33;7.00;99.90
30206;DHT22;17010;51.306;3.150;2023-01-15T08:01:59;6.90;99.90
30206;DHT22;17010;51.306;3.150;2023-01-15T08:04:25;6.90;99.90
30206;DHT22;17010;51.306;3.150;2023-01-15T08:06:52;6.90;99.90
30206;DHT22;17010;51.306;3.150;2023-01-15T08:09:18;6.90;99.90
30206;DHT22;17010;51.306;3.150;2023-01-15T08:11:44;6.90;99.90
30206;DHT22;17010;51.306;3.150;2023-01-15T08:14:29;7.10;99.90
30206;DHT22;17010;51.306;3.150;2023-01-15T08:17:14;7.10;99.90
30206;DHT22;17010;51.306;3.150;2023-01-15T08:19:40;7.10;99.90
30206;DHT22;17010;51.306;3.150;2023-01-15T08:22:06;7.20;99.90
30206;DHT22;17010;51.306;3.150;2023-01-15T08:24:35;7.20;99.90
30206;DHT22;17010;51.306;3.150;2023-01-15T08:27:01;7.20;99.90
30206;DHT22;17010;51.306;3.150;2023-01-15T08:29:27;7.20;99.90
30206;DHT22;17010;51.306;3.150;2023-01-15T08:31:53;7.20;99.90
30206;DHT22;17010;51.306;3.150;2023-01-15T08:34:19;7.20;99.90
30206;DHT22;17010;51.306;3.150;2023-01-15T08:36:46;7.20;99.90
30206;DHT22;17010;51.306;3.150;2023-01-15T08:39:12;7.20;99.90
30206;DHT22;17010;51.306;3.150;2023-01-15T08:41:38;7.20;99.90
30206;DHT22;17010;51.306;3.150;2023-01-15T08:44:04;7.10;99.90
30206;DHT22;17010;51.306;3.150;2023-01-15T08:46:30;7.00;99.90
30206;DHT22;17010;51.306;3.150;2023-01-15T08:48:56;7.00;99.90
30206;DHT22;17010;51.306;3.150;2023-01-15T08:51:22;7.00;99.90
30206;DHT22;17010;51.306;3.150;2023-01-15T08:53:49;6.90;99.90
30206;DHT22;17010;51.306;3.150;2023-01-15T08:56:16;7.00;99.90
30206;DHT22;17010;51.306;3.150;2023-01-15T08:58:43;7.00;99.90
30206;DHT22;17010;51.306;3.150;2023-01-15T09:01:10;7.10;99.90
30206;DHT22;17010;51.306;3.150;2023-01-15T09:03:42;7.10;99.90
30206;DHT22;17010;51.306;3.150;2023-01-15T09:06:09;7.20;99.90
30206;DHT22;17010;51.306;3.150;2023-01-15T09:08:36;7.30;99.90
30206;DHT22;17010;51.306;3.150;2023-01-15T09:11:04;7.40;99.90
30206;DHT22;17010;51.306;3.150;2023-01-15T09:13:30;7.40;99.90
30206;DHT22;17010;51.306;3.150;2023-01-15T09:16:01;7.40;99.90
30206;DHT22;17010;51.306;3.150;2023-01-15T09:18:27;7.50;99.90
30206;DHT22;17010;51.306;3.150;2023-01-15T09:20:54;7.50;99.90
30206;DHT22;17010;51.306;3.150;2023-01-15T09:23:20;7.50;99.90
30206;DHT22;17010;51.306;3.150;2023-01-15T09:25:58;7.50;99.90
30206;DHT22;17010;51.306;3.150;2023-01-15T09:28:24;7.50;99.90
30206;DHT22;17010;51.306;3.150;2023-01-15T09:30:50;7.50;99.90
30206;DHT22;17010;51.306;3.150;2023-01-15T09:33:16;7.50;99.90
30206;DHT22;17010;51.306;3.150;2023-01-15T09:35:43;7.50;99.90
30206;DHT22;17010;51.306;3.150;2023-01-15T09:38:13;7.60;99.90
30206;DHT22;17010;51.306;3.150;2023-01-15T09:40:53;7.70;99.90
30206;DHT22;17010;51.306;3.150;2023-01-15T09:46:15;7.70;99.90
30206;DHT22;17010;51.306;3.150;2023-01-15T09:48:54;7.60;99.90
30206;DHT22;17010;51.306;3.150;2023-01-15T09:51:34;7.60;99.90
30206;DHT22;17010;51.306;3.150;2023-01-15T09:56:31;7.50;99.90
30206;DHT22;17010;51.306;3.150;2023-01-15T09:59:00;7.40;99.90
30206;DHT22;17010;51.306;3.150;2023-01-15T10:01:30;7.50;99.90
30206;DHT22;17010;51.306;3.150;2023-01-15T10:04:42;7.70;99.90
30206;DHT22;17010;51.306;3.150;2023-01-15T10:07:29;7.90;99.90
30206;DHT22;17010;51.306;3.150;2023-01-15T10:10:04;7.90;99.90
30206;DHT22;17010;51.306;3.150;2023-01-15T10:12:32;8.00;99.90
30206;DHT22;17010;51.306;3.150;2023-01-15T10:23:22;8.00;99.90
30206;DHT22;17010;51.306;3.150;2023-01-15T10:25:58;7.90;99.90
30206;DHT22;17010;51.306;3.150;2023-01-15T10:28:27;7.70;99.90
30206;DHT22;17010;51.306;3.150;2023-01-15T10:30:55;7.40;99.90
30206;DHT22;17010;51.306;3.150;2023-01-15T10:36:39;6.90;99.90
30206;DHT22;17010;51.306;3.150;2023-01-15T10:47:33;6.30;99.90
30206;DHT22;17010;51.306;3.150;2023-01-15T10:50:02;6.20;99.90
30206;DHT22;17010;51.306;3.150;2023-01-15T10:52:31;6.20;99.90
30206;DHT22;17010;51.306;3.150;2023-01-15T10:55:32;6.40;99.90
30206;DHT22;17010;51.306;3.150;2023-01-15T10:58:29;6.70;99.90
30206;DHT22;17010;51.306;3.150;2023-01-15T11:01:02;7.00;99.90
30206;DHT22;17010;51.306;3.150;2023-01-15T11:03:41;7.20;99.90
30206;DHT22;17010;51.306;3.150;2023-01-15T11:06:13;7.40;99.90
30206;DHT22;17010;51.306;3.150;2023-01-15T11:09:01;7.70;99.90
30206;DHT22;17010;51.306;3.150;2023-01-15T11:11:47;7.80;99.90
30206;DHT22;17010;51.306;3.150;2023-01-15T11:17:29;7.80;99.90
30206;DHT22;17010;51.306;3.150;2023-01-15T11:22:55;7.80;99.90
30206;DHT22;17010;51.306;3.150;2023-01-15T11:25:27;7.80;99.90
30206;DHT22;17010;51.306;3.150;2023-01-15T11:27:54;7.80;99.90
30206;DHT22;17010;51.306;3.150;2023-01-15T11:30:32;7.90;99.90
30206;DHT22;17010;51.306;3.150;2023-01-15T11:33:01;7.90;99.90
30206;DHT22;17010;51.306;3.150;2023-01-15T11:35:31;7.90;99.90
30206;DHT22;17010;51.306;3.150;2023-01-15T11:38:12;8.00;99.90
30206;DHT22;17010;51.306;3.150;2023-01-15T11:40:39;8.00;99.90
30206;DHT22;17010;51.306;3.150;2023-01-15T11:43:23;8.10;99.90
30206;DHT22;17010;51.306;3.150;2023-01-15T11:46:25;8.30;99.90
30206;DHT22;17010;51.306;3.150;2023-01-15T11:49:15;8.40;99.90
30206;DHT22;17010;51.306;3.150;2023-01-15T11:52:00;8.60;99.90
30206;DHT22;17010;51.306;3.150;2023-01-15T11:54:27;8.60;99.90
30206;DHT22;17010;51.306;3.150;2023-01-15T11:56:55;8.60;99.90
30206;DHT22;17010;51.306;3.150;2023-01-15T11:59:21;8.60;99.90
30206;DHT22;17010;51.306;3.150;2023-01-15T12:01:53;8.50;99.90
30206;DHT22;17010;51.306;3.150;2023-01-15T12:06:53;8.40;99.90
30206;DHT22;17010;51.306;3.150;2023-01-15T12:15:14;8.50;99.90
30206;DHT22;17010;51.306;3.150;2023-01-15T12:20:28;8.50;99.90
30206;DHT22;17010;51.306;3.150;2023-01-15T12:26:17;8.50;99.90
30206;DHT22;17010;51.306;3.150;2023-01-15T12:31:38;8.70;99.90
30206;DHT22;17010;51.306;3.150;2023-01-15T12:34:28;8.80;99.90
30206;DHT22;17010;51.306;3.150;2023-01-15T12:37:12;8.80;99.90
30206;DHT22;17010;51.306;3.150;2023-01-15T12:39:49;8.80;99.90
30206;DHT22;17010;51.306;3.150;2023-01-15T12:42:20;8.90;99.90
30206;DHT22;17010;51.306;3.150;2023-01-15T12:45:15;9.00;99.90
30206;DHT22;17010;51.306;3.150;2023-01-15T12:50:26;9.20;99.90
30206;DHT22;17010;51.306;3.150;2023-01-15T12:55:35;9.20;99.90
30206;DHT22;17010;51.306;3.150;2023-01-15T12:58:07;9.20;99.90
30206;DHT22;17010;51.306;3.150;2023-01-15T13:00:40;9.20;99.90
30206;DHT22;17010;51.306;3.150;2023-01-15T13:03:27;9.30;99.90
30206;DHT22;17010;51.306;3.150;2023-01-15T13:05:56;9.30;99.90
30206;DHT22;17010;51.306;3.150;2023-01-15T13:11:01;9.40;99.90
30206;DHT22;17010;51.306;3.150;2023-01-15T13:13:38;9.40;99.90
30206;DHT22;17010;51.306;3.150;2023-01-15T13:16:16;9.40;99.90
30206;DHT22;17010;51.306;3.150;2023-01-15T13:21:15;9.40;99.90
30206;DHT22;17010;51.306;3.150;2023-01-15T13:32:15;9.20;99.90
30206;DHT22;17010;51.306;3.150;2023-01-15T13:37:42;9.40;99.90
30206;DHT22;17010;51.306;3.150;2023-01-15T13:40:14;9.40;99.90
30206;DHT22;17010;51.306;3.150;2023-01-15T13:42:46;9.40;99.90
30206;DHT22;17010;51.306;3.150;2023-01-15T13:47:57;9.10;99.90
30206;DHT22;17010;51.306;3.150;2023-01-15T13:50:30;9.00;99.90
30206;DHT22;17010;51.306;3.150;2023-01-15T13:55:54;9.00;99.90
30206;DHT22;17010;51.306;3.150;2023-01-15T13:58:29;8.90;99.90
30206;DHT22;17010;51.306;3.150;2023-01-15T14:09:03;8.80;99.90
30206;DHT22;17010;51.306;3.150;2023-01-15T14:11:35;8.90;99.90
30206;DHT22;17010;51.306;3.150;2023-01-15T14:15:17;9.00;99.90
30206;DHT22;17010;51.306;3.150;2023-01-15T14:25:53;8.90;99.90
30206;DHT22;17010;51.306;3.150;2023-01-15T14:28:47;8.90;99.90
30206;DHT22;17010;51.306;3.150;2023-01-15T14:31:37;8.80;99.90
30206;DHT22;17010;51.306;3.150;2023-01-15T14:34:26;8.80;99.90
30206;DHT22;17010;51.306;3.150;2023-01-15T14:37:04;8.70;99.90
30206;DHT22;17010;51.306;3.150;2023-01-15T14:39:39;8.60;99.90
30206;DHT22;17010;51.306;3.150;2023-01-15T14:47:44;8.10;99.90
30206;DHT22;17010;51.306;3.150;2023-01-15T14:50:21;7.90;99.90
30206;DHT22;17010;51.306;3.150;2023-01-15T14:52:49;7.80;99.90
30206;DHT22;17010;51.306;3.150;2023-01-15T14:55:17;7.70;99.90
30206;DHT22;17010;51.306;3.150;2023-01-15T14:58:04;7.60;99.90
30206;DHT22;17010;51.306;3.150;2023-01-15T15:00:35;7.50;99.90
30206;DHT22;17010;51.306;3.150;2023-01-15T15:03:07;7.40;99.90
30206;DHT22;17010;51.306;3.150;2023-01-15T15:05:39;7.30;99.90
30206;DHT22;17010;51.306;3.150;2023-01-15T15:08:06;7.20;99.90
30206;DHT22;17010;51.306;3.150;2023-01-15T15:10:38;7.10;99.90
30206;DHT22;17010;51.306;3.150;2023-01-15T15:15:52;7.00;99.90
30206;DHT22;17010;51.306;3.150;2023-01-15T15:18:30;6.90;99.90
30206;DHT22;17010;51.306;3.150;2023-01-15T15:21:24;6.90;99.90
30206;DHT22;17010;51.306;3.150;2023-01-15T15:23:57;6.80;99.90
30206;DHT22;17010;51.306;3.150;2023-01-15T15:26:28;6.70;99.90
30206;DHT22;17010;51.306;3.150;2023-01-15T15:28:59;6.70;99.90
30206;DHT22;17010;51.306;3.150;2023-01-15T15:31:25;6.60;99.90
30206;DHT22;17010;51.306;3.150;2023-01-15T15:33:55;6.60;99.90
30206;DHT22;17010;51.306;3.150;2023-01-15T15:36:24;6.60;99.90
30206;DHT22;17010;51.306;3.150;2023-01-15T15:39:02;6.50;99.90
30206;DHT22;17010;51.306;3.150;2023-01-15T15:41:31;6.50;99.90
30206;DHT22;17010;51.306;3.150;2023-01-15T15:44:38;6.50;99.90
30206;DHT22;17010;51.306;3.150;2023-01-15T15:47:25;6.50;99.90
30206;DHT22;17010;51.306;3.150;2023-01-15T15:50:27;6.40;99.90
30206;DHT22;17010;51.306;3.150;2023-01-15T15:52:55;6.30;99.90
30206;DHT22;17010;51.306;3.150;2023-01-15T15:55:25;6.30;99.90
30206;DHT22;17010;51.306;3.150;2023-01-15T15:57:58;6.20;99.90
30206;DHT22;17010;51.306;3.150;2023-01-15T16:00:40;6.20;99.90
30206;DHT22;17010;51.306;3.150;2023-01-15T16:03:20;6.20;99.90
30206;DHT22;17010;51.306;3.150;2023-01-15T16:08:28;6.10;99.90
30206;DHT22;17010;51.306;3.150;2023-01-15T16:10:56;6.10;99.90
30206;DHT22;17010;51.306;3.150;2023-01-15T16:13:43;6.00;99.90
30206;DHT22;17010;51.306;3.150;2023-01-15T16:16:10;6.00;99.90
30206;DHT22;17010;51.306;3.150;2023-01-15T16:18:39;6.00;99.90
30206;DHT22;17010;51.306;3.150;2023-01-15T16:21:10;6.00;99.90
30206;DHT22;17010;51.306;3.150;2023-01-15T16:23:40;5.90;99.90
30206;DHT22;17010;51.306;3.150;2023-01-15T16:26:21;5.90;99.90
30206;DHT22;17010;51.306;3.150;2023-01-15T16:28:53;5.80;99.90
30206;DHT22;17010;51.306;3.150;2023-01-15T16:31:20;5.70;99.90
30206;DHT22;17010;51.306;3.150;2023-01-15T16:33:53;5.70;99.90
30206;DHT22;17010;51.306;3.150;2023-01-15T16:36:21;5.70;99.90
30206;DHT22;17010;51.306;3.150;2023-01-15T16:38:48;5.60;99.90
30206;DHT22;17010;51.306;3.150;2023-01-15T16:41:23;5.50;99.90
30206;DHT22;17010;51.306;3.150;2023-01-15T16:43:57;5.50;99.90
30206;DHT22;17010;51.306;3.150;2023-01-15T16:46:25;5.50;99.90
30206;DHT22;17010;51.306;3.150;2023-01-15T16:51:54;5.40;99.90
30206;DHT22;17010;51.306;3.150;2023-01-15T16:59:53;5.30;99.90
30206;DHT22;17010;51.306;3.150;2023-01-15T17:02:20;5.30;99.90
30206;DHT22;17010;51.306;3.150;2023-01-15T17:04:47;5.30;99.90
30206;DHT22;17010;51.306;3.150;2023-01-15T17:09:44;5.20;99.90
30206;DHT22;17010;51.306;3.150;2023-01-15T17:12:37;5.20;99.90
30206;DHT22;17010;51.306;3.150;2023-01-15T17:17:40;5.20;99.90
30206;DHT22;17010;51.306;3.150;2023-01-15T17:20:08;5.20;99.90
30206;DHT22;17010;51.306;3.150;2023-01-15T17:22:35;5.20;99.90
30206;DHT22;17010;51.306;3.150;2023-01-15T17:25:19;5.20;99.90
30206;DHT22;17010;51.306;3.150;2023-01-15T17:27:45;5.30;99.90
30206;DHT22;17010;51.306;3.150;2023-01-15T17:30:12;5.30;99.90
30206;DHT22;17010;51.306;3.150;2023-01-15T17:32:38;5.30;99.90
30206;DHT22;17010;51.306;3.150;2023-01-15T17:35:30;5.40;99.90
30206;DHT22;17010;51.306;3.150;2023-01-15T17:37:55;5.40;99.90
30206;DHT22;17010;51.306;3.150;2023-01-15T17:40:22;5.40;99.90
30206;DHT22;17010;51.306;3.150;2023-01-15T17:42:48;5.50;99.90
30206;DHT22;17010;51.306;3.150;2023-01-15T17:45:20;5.50;99.90
30206;DHT22;17010;51.306;3.150;2023-01-15T17:47:46;5.60;99.90
30206;DHT22;17010;51.306;3.150;2023-01-15T17:50:12;5.60;99.90
30206;DHT22;17010;51.306;3.150;2023-01-15T17:52:39;5.60;99.90
30206;DHT22;17010;51.306;3.150;2023-01-15T17:55:06;5.60;99.90
30206;DHT22;17010;51.306;3.150;2023-01-15T17:57:50;5.60;99.90
30206;DHT22;17010;51.306;3.150;2023-01-15T18:00:35;5.60;99.90
30206;DHT22;17010;51.306;3.150;2023-01-15T18:03:21;5.60;99.90
30206;DHT22;17010;51.306;3.150;2023-01-15T18:06:12;5.60;99.90
30206;DHT22;17010;51.306;3.150;2023-01-15T18:08:39;5.60;99.90
30206;DHT22;17010;51.306;3.150;2023-01-15T18:11:07;5.60;99.90
30206;DHT22;17010;51.306;3.150;2023-01-15T18:13:33;5.60;99.90
30206;DHT22;17010;51.306;3.150;2023-01-15T18:16:00;5.50;99.90
30206;DHT22;17010;51.306;3.150;2023-01-15T18:18:26;5.50;99.90
30206;DHT22;17010;51.306;3.150;2023-01-15T18:20:52;5.40;99.90
30206;DHT22;17010;51.306;3.150;2023-01-15T18:23:18;5.30;99.90
30206;DHT22;17010;51.306;3.150;2023-01-15T18:25:45;5.30;99.90
30206;DHT22;17010;51.306;3.150;2023-01-15T18:28:12;5.10;99.90
30206;DHT22;17010;51.306;3.150;2023-01-15T18:30:39;5.00;99.90
30206;DHT22;17010;51.306;3.150;2023-01-15T18:33:05;5.00;99.90